Erick Pulgar

Chefscout - Union Espanola
22 Apr 2027
Donnerstag
Verarbeitung

Persönlichkeit

Anpassungsfähigkeit (12) Ehrgeiz (3) Kontroverse (4) Loyalität (3) Druck (15) Professionalität (17) Fairness (12) Temperament (5)

Profil

Trainerstil Demokratisch
Lizenz Kontinentale B
Entschlossenheit 5
Menschenführung 11
Motivation 6
Disziplin 7
Arbeitszufriedenheit
96%
Ermüdung
0%
Rolle Chefscout
Gehalt 51.5K p/W
Vertrag 14.03.2029

Leistung

Verhalten Gut
Trainingseffektivität
28%
Spielerentwicklung
35%
Verletzungsprävention
60%
Taktische Umsetzung
40%

Letzte Ereignisse

Spieler begutachtet jetzt
Nahm an einer Scouting-Besprechung teil jetzt
Nahm an einer Scouting-Besprechung teil jetzt
Spieler begutachtet 7T her
Spieler begutachtet 7T her
Spieler begutachtet 7T her
Spieler begutachtet 7T her
Spieler begutachtet 7T her

Aktuell beobachtet

202
Spieler Verein Status Fähigkeit Vertrauen Beobachtet Zuletzt beobachtet Letzte Stimme
Juan Brunetta Tigres Aktiv 144 / 142 40% 5 21.04.2027 -
Robert Mizo Ashanti Gold Aktiv 106 / 108 40% 1 21.04.2027 -
Jackson Muleka Konyaspor Aktiv 142 / 122 40% 3 20.04.2027 -
Vladyslav Vanat Girona Aktiv 116 / 133 40% 2 20.04.2027 -
Bertrand Traoré Sunderland Aktiv 140 / 125 40% 1 19.04.2027 -
Moussa Dembélé CR Belouizdad Aktiv 151 / 138 40% 4 18.04.2027 -
Patson Daka Leicester City Aktiv 137 / 133 40% 1 18.04.2027 -
Dani Gómez Zaragoza Aktiv 108 / 125 40% 3 16.04.2027 -
Joe Gelhardt Hull City Aktiv 117 / 132 40% 3 16.04.2027 -
Kyle Wootton Stockport County Aktiv 122 / 126 40% 2 15.04.2027 -
Marezi Portsmouth Aktiv 114 / 115 40% 2 15.04.2027 -
Tyrese Campbell Sheffield United Aktiv 122 / 130 40% 2 14.04.2027 -
Petar Musa Adana Demirspor Aktiv 146 / 130 40% 3 14.04.2027 -
Will Lankshear Middlesbrough Aktiv 110 / 133 40% 4 13.04.2027 -
Tyreece Campbell Charlton Athletic Aktiv 135 / 116 40% 4 13.04.2027 -
Harry Leonard Peterborough United Aktiv 105 / 121 40% 1 12.04.2027 -
Lorent Tolaj Plymouth Argyle Aktiv 135 / 125 40% 1 11.04.2027 -
Themba Ngcobo SuperSport United Aktiv 115 / 114 40% 9 10.04.2027 -
Dom Ballard Leyton Orient Aktiv 134 / 121 40% 3 07.04.2027 -
Ross Stewart Southampton Aktiv 132 / 126 40% 2 06.04.2027 -
Iqraam Rayners Colchester United Aktiv 132 / 122 40% 4 06.04.2027 -
Morgan Whittaker Middlesbrough Aktiv 124 / 122 40% 2 05.04.2027 -
Fortune Bassey Djoliba Aktiv 107 / 104 40% 1 05.04.2027 -
Aaron Connolly Leyton Orient Aktiv 109 / 121 40% 3 04.04.2027 -
Romelu Castagne KV Oostende Aktiv 144 / 141 40% 2 04.04.2027 -
Victor Adeboyejo Ismaily Aktiv 125 / 100 40% 3 03.04.2027 -
Oli McBurnie Hull City Aktiv 151 / 125 40% 2 01.04.2027 -
Alassana Jatta Notts County Aktiv 99 / 109 40% 1 01.04.2027 -
Yousef Salech Cardiff City Aktiv 120 / 119 40% 2 31.03.2027 -
Aaron Collins Milton Keynes Dons Aktiv 132 / 117 40% 2 28.03.2027 -
Luis Vázquez Birmingham Aktiv 120 / 134 40% 3 27.03.2027 -
Mohamed-Ali Cho Hull City Aktiv 134 / 139 40% 1 26.03.2027 -
Callum O'Hare Sheffield United Aktiv 116 / 127 40% 2 25.03.2027 -
Stephen Odey Ittihad Aktiv 95 / 115 40% 1 25.03.2027 -
Harry Cornick AFC Wimbledon Aktiv 100 / 95 40% 2 21.03.2027 -
Tom Cannon Sheffield United Aktiv 118 / 124 40% 3 21.03.2027 -
Ronan Hale Gillingham Aktiv 129 / 111 40% 3 18.03.2027 -
Aune Heggebø West Bromwich Albion Aktiv 132 / 127 40% 2 17.03.2027 -
Brennan Johnson Everton Aktiv 152 / 151 40% 1 17.03.2027 -
Mandla Mahlangu Ajax Cape Town Aktiv 90 / 103 40% 3 15.03.2027 -
Thulani Erasmus Platinum Stars Aktiv 105 / 102 40% 1 13.03.2027 -
Hany Mukhtar Spezia Aktiv 120 / 137 40% 1 12.03.2027 -
Guilherme Ankaragucu Abgelehnt 108 / 126 40% 2 11.03.2027 Mehr Infos nötig
Dávid Strelec Middlesbrough Aktiv 156 / 141 40% 1 11.03.2027 -
Ilyas Ansah Hull City Aktiv 137 / 130 40% 1 10.03.2027 -
Lewis Morgan SuperSport United Aktiv 127 / 133 40% 10 09.03.2027 -
Evidence Makgopa Orlando Pirates Aktiv 114 / 121 40% 2 08.03.2027 -
Adolfo Muñoz Ruch Aktiv 126 / 120 40% 3 04.03.2027 -
Zian Flemming Ipswich Town Aktiv 131 / 128 40% 2 04.03.2027 -
Akor Adams Venezia Aktiv 140 / 130 40% 2 27.02.2027 -
Oleksii Hutsuliak Polissia Aktiv 142 / 116 40% 1 23.02.2027 -
Tomás González Piast Aktiv 114 / 120 40% 2 21.02.2027 -
George Hirst Stoke City Aktiv 140 / 123 40% 2 20.02.2027 -
Wandile Duba Maritzburg United Aktiv 86 / 110 40% 1 18.02.2027 -
Bojan Radulović Huddersfield Town Aktiv 104 / 108 40% 1 14.02.2027 -
Josh Koroma Leyton Orient Aktiv 90 / 105 40% 1 14.02.2027 -
Niall Ennis Blackpool Aktiv 129 / 101 40% 2 09.02.2027 -
Erik Prekop Gornik Zabrze Aktiv 112 / 120 40% 1 09.02.2027 -
Everton Bala Levski Aktiv 118 / 123 40% 2 08.02.2027 -
Aurélien Scheidler Charleroi Aktiv 121 / 118 40% 1 08.02.2027 -
Job Ochieng Real Sociedad Aktiv 86 / 115 40% 1 06.02.2027 -
Elijah Adebayo Luton Town Aktiv 128 / 126 40% 2 05.02.2027 -
Danyil Alefirenko Chornomorets Aktiv 110 / 102 40% 1 05.02.2027 -
Mees Rijks Bristol Rovers Aktiv 128 / 118 40% 1 04.02.2027 -
Iwan Morgan Grimsby Town Aktiv 105 / 115 40% 2 02.02.2027 -
Wesley Pomba Veres Aktiv 134 / 119 40% 1 02.02.2027 -
Robert Murić Floriana Aktiv 100 / 103 40% 1 01.02.2027 -
Sam Nombe Milton Keynes Dons Aktiv 97 / 109 40% 1 29.01.2027 -
Taisei Miyashiro Napoli Aktiv 119 / 133 40% 3 27.01.2027 -
Brayan Gil Baltika Aktiv 120 / 132 40% 1 27.01.2027 -
David Barbona Defensa y Justicia Aktiv 133 / 126 40% 4 26.01.2027 -
Bandar Yaqoob ES Setif Aktiv 135 / 125 40% 1 25.01.2027 -
Carlton Morris Derby County Aktiv 128 / 117 40% 1 25.01.2027 -
Chinedu Geoffrey Krylya Sovetov Aktiv 108 / 104 40% 1 23.01.2027 -
José Martínes CSKA 1948 Aktiv 107 / 106 40% 1 23.01.2027 -
Pablo Rodríguez Lech Aktiv 113 / 116 40% 2 22.01.2027 -
Brayan León Mamelodi Sundowns Aktiv 104 / 112 40% 2 20.01.2027 -
Patrick Cutrone Monza Aktiv 119 / 131 40% 1 16.01.2027 -
Nicolás Contín MFK Ruzomberok Aktiv 110 / 118 40% 1 07.01.2027 -
Lucas Souto Defensa y Justicia Aktiv 114 / 130 40% 2 21.12.2026 -
Damián Fernández Defensa y Justicia Aktiv 119 / 132 40% 2 02.12.2026 -
Rodrigo González Aldosivi Aktiv 112 / 120 40% 1 02.12.2026 -
Sondre Tronstad Blackburn Rovers Aktiv 132 / 130 40% 1 30.11.2026 -
Carlos Gugenheim Almirante Brown Aktiv 107 / 117 40% 1 29.11.2026 -
Jonás Luna Santa Clara Aktiv 100 / 124 40% 4 28.11.2026 -
Dani Raba Standard Liege Aktiv 138 / 126 40% 1 28.11.2026 -
Alexey Miranchuk St. Gallen Aktiv 135 / 141 40% 3 27.11.2026 -
Michael Zetterer Leeds United Aktiv 156 / 138 40% 2 27.11.2026 -
Santiago Rodríguez Gimnasia y Esgrima Aktiv 130 / 124 40% 2 26.11.2026 -
Manuel Roffo Cerro Porteno Aktiv 133 / 132 40% 1 24.11.2026 -
Jonás Acevedo Instituto Aktiv 131 / 123 40% 2 23.11.2026 -
Jamie Cumming Oxford United Aktiv 125 / 126 40% 1 22.11.2026 -
Nahuel Pezzini Arsenal Aktiv 120 / 114 40% 1 22.11.2026 -
Pol Tristán Barnsley Aktiv 118 / 117 40% 1 21.11.2026 -
Luca Martínez Dupuy Godoy Cruz Aktiv 115 / 126 40% 2 19.11.2026 -
Lucas Carrizo Plaza Colonia Aktiv 101 / 115 40% 1 19.11.2026 -
Lucas Varaldo Central Córdoba SdE Aktiv 110 / 118 40% 1 18.11.2026 -
Tomás Molina Argentinos Juniors Aktiv 121 / 126 40% 2 17.11.2026 -
Nicolás Cordero Aldosivi Aktiv 128 / 113 40% 2 16.11.2026 -
Marcelo Torres Gimnasia La Plata Aktiv 115 / 115 40% 1 16.11.2026 -
Lautaro Maldonado Instituto Aktiv 119 / 111 40% 1 16.11.2026 -
Renato Solís Sporting Cristal Aktiv 112 / 125 40% 1 16.11.2026 -
Antony Alonso Deportivo Riestra Aktiv 118 / 115 40% 1 14.11.2026 -
Nicolás Fernández Sassuolo Aktiv 137 / 121 40% 1 14.11.2026 -
Luca Franco Arsenal Aktiv 96 / 114 40% 1 13.11.2026 -
Luis Ingolotti Atlético Tucumán Aktiv 120 / 123 40% 1 13.11.2026 -
Santiago Roggero Gimnasia y Esgrima Aktiv 113 / 103 40% 1 13.11.2026 -
Rodrigo Bogarín Barracas Central Aktiv 119 / 117 40% 1 11.11.2026 Mehr Infos nötig
Hansel Zapata Botev Plovdiv Aktiv 105 / 119 40% 1 10.11.2026 -
Agustín Módica Gimnasia y Esgrima Aktiv 112 / 115 40% 3 09.11.2026 -
Yeison Moreno Hajduk Split Aktiv 104 / 110 40% 1 08.11.2026 -
Siro Rosané Estudiantes Aktiv 112 / 112 40% 2 07.11.2026 -
Alexander Díaz Deportivo Riestra Aktiv 129 / 114 40% 5 07.11.2026 -
Facundo Krüger Temperley Aktiv 123 / 114 40% 1 07.11.2026 -
Andreas Hansen FC Nordsjaelland Aktiv 137 / 113 40% 1 07.11.2026 -
Facundo Miño Deportivo Riestra Aktiv 109 / 118 40% 1 07.11.2026 -
Sipho Chaine Orlando Pirates Aktiv 135 / 110 40% 1 05.11.2026 -
Joaquín Bigo Tristán Suárez Aktiv 117 / 103 40% 1 05.11.2026 -
Veljko Birmančević Ferencvaros Aktiv 128 / 127 40% 1 03.11.2026 -
Ignacio Lago Colón Aktiv 118 / 113 40% 1 02.11.2026 -
Bamba Dieng Crvena Zvezda Aktiv 132 / 130 40% 1 01.11.2026 -
Fabricio Rojas Gimnasia y Tiro Aktiv 108 / 106 40% 3 31.10.2026 -
Sergio González Racing Aktiv 118 / 112 40% 2 31.10.2026 -
Marcelo Estigarribia Unión de Santa Fe Aktiv 122 / 124 40% 2 30.10.2026 -
Agustín Gallo Tristán Suárez Aktiv 121 / 111 40% 1 28.10.2026 -
Felipe Zenobio Tigre Aktiv 123 / 126 40% 1 27.10.2026 -
Laureano Martínez Talleres Aktiv 108 / 103 40% 1 25.10.2026 -
José Barreto Quilmes Aktiv 122 / 115 40% 1 25.10.2026 -
Matías Sosa Arsenal Aktiv 123 / 110 40% 1 20.10.2026 -
Ignacio Chicco Aldosivi Aktiv 127 / 119 40% 1 18.10.2026 -
Viktor Johansson Stoke City Aktiv 145 / 132 40% 1 18.10.2026 -
Mauro Valiente Estudiantes Aktiv 104 / 106 40% 1 16.10.2026 -
Rubén Duarte Legia Aktiv 140 / 138 40% 2 15.10.2026 -
Patrick Schulte Columbus Crew Aktiv 133 / 111 40% 1 12.10.2026 -
Misael Sosa Godoy Cruz Aktiv 104 / 118 40% 1 10.10.2026 -
Denis Bouanga Los Angeles Football Club Aktiv 123 / 131 40% 1 08.10.2026 -
Rafael Navarro St. Louis CITY SC Aktiv 110 / 131 40% 1 08.10.2026 -
José Florentín Independiente Rivadavia Aktiv 126 / 119 40% 1 07.10.2026 -
Lautaro Petruchi Gimnasia y Esgrima Aktiv 110 / 114 40% 1 06.10.2026 -
Matías Tagliamonte Racing Club Aktiv 122 / 120 40% 1 06.10.2026 -
Mario Galeano Los Andes Aktiv 123 / 113 40% 1 03.10.2026 -
Tomás Chancalay Minnesota United FC Aktiv 122 / 125 40% 2 01.10.2026 -
Marcus Bundgaard SonderjyskE Aktiv 113 / 105 40% 1 01.10.2026 -
Razvan Balasa Crvena Zvezda Aktiv 145 / 150 40% 2 30.09.2026 -
Alejandro Melo Cibalia Aktiv 99 / 105 40% 1 30.09.2026 -
Drake Callender Minnesota United FC Aktiv 110 / 111 40% 2 28.09.2026 -
Miguel Silva Carabobo Aktiv 101 / 108 40% 1 28.09.2026 -
Maximiliano Rodríguez Huachipato Aktiv 103 / 121 40% 1 27.09.2026 -
Sead Hakšabanović Malmo FF Aktiv 125 / 118 40% 2 25.09.2026 -
César Magallan Estudiantes de Merida Aktiv 105 / 102 40% 1 25.09.2026 -
Vojtěch Vorel Mlada Boleslav Aktiv 124 / 113 40% 1 25.09.2026 -
CJ dos Santos San Diego Football Club Aktiv 96 / 101 40% 1 23.09.2026 -
Santiago Silva CFR Cluj Aktiv 115 / 123 40% 2 22.09.2026 -
Filip Marschall Stevenage Aktiv 107 / 108 40% 1 22.09.2026 -
Timo Werner San Jose Earthquakes Aktiv 147 / 130 40% 1 18.09.2026 -
Rodin Quiñónes Charlotte Football Club Aktiv 93 / 105 40% 1 18.09.2026 -
Richard Celis Zamora Aktiv 101 / 102 40% 3 17.09.2026 -
Victor Olatunji Real Salt Lake Aktiv 111 / 119 40% 2 17.09.2026 -
Roman Celentano FC Cincinnati Aktiv 126 / 117 40% 1 17.09.2026 -
JT Marcinkowski LA Galaxy Aktiv 121 / 107 40% 1 16.09.2026 -
Miguel Vargas Universitario Aktiv 102 / 121 40% 1 16.09.2026 -
Ángel González Libertad Aktiv 93 / 114 40% 1 15.09.2026 -
Marcos Cuenca Zaragoza Aktiv 119 / 113 40% 1 14.09.2026 -
Sam Surridge Nashville SC Aktiv 146 / 128 40% 1 12.09.2026 -
Theo Corbeanu Toronto FC Aktiv 116 / 123 40% 1 12.09.2026 -
Tadeo Allende Inter Miami CF Aktiv 107 / 126 40% 1 10.09.2026 -
Jonatan Torres Cerro Porteno Aktiv 133 / 120 40% 1 09.09.2026 -
Juan Escobar Melgar Aktiv 127 / 124 40% 1 09.09.2026 -
Ulises Rivas DC United Aktiv 113 / 113 40% 1 09.09.2026 -
Christian Larotonda Caracas Aktiv 125 / 114 40% 2 08.09.2026 -
Delvin Alfonzo Deportivo Tachira Aktiv 121 / 115 40% 1 08.09.2026 -
Agustín Venezia Iquique Aktiv 120 / 111 40% 1 07.09.2026 -
Ray Sandoval Cienciano Aktiv 109 / 106 40% 1 04.09.2026 -
Freddy Borja Llaneros Aktiv 120 / 109 40% 2 02.09.2026 -
Santiago Giordana Millonarios Aktiv 112 / 120 40% 1 02.09.2026 -
Liel Abada Charlotte Football Club Aktiv 122 / 137 40% 1 30.08.2026 -
Cheikh Sabaly Vancouver Whitecaps Aktiv 137 / 115 40% 1 30.08.2026 -
Cristian Núñez Huracán Aktiv 107 / 109 40% 1 27.08.2026 -
Luis Ramos Alianza Lima Aktiv 122 / 112 40% 1 24.08.2026 -
Dejan Joveljić Seattle Sounders Aktiv 115 / 136 40% 1 22.08.2026 -
Ramiro Ruiz Rodríguez Atlético Tucumán Aktiv 115 / 114 40% 1 21.08.2026 -
Myrto Uzuni Austin FC Aktiv 121 / 127 40% 1 20.08.2026 -
Nahuel Luján Sport Huancayo Aktiv 114 / 115 40% 1 16.08.2026 -
Marcelo Fernández Libertad Aktiv 100 / 120 40% 2 15.08.2026 -
Enzo Avaro Odd Aktiv 97 / 100 40% 1 14.08.2026 -
Italo Regalado Cesar Vallejo Aktiv 97 / 101 40% 1 12.08.2026 -
Claudio Villagra Volos NPS Aktiv 94 / 104 40% 1 12.08.2026 -
Eryc Castillo Alianza Lima Aktiv 126 / 114 40% 1 11.08.2026 -
Genaro Rossi San Martín SJ Aktiv 117 / 103 40% 1 09.08.2026 -
Iván Maggi Sportivo Luqueno Aktiv 118 / 118 40% 1 09.08.2026 -
Paxten Aaronson Colorado Rapids Aktiv 117 / 129 40% 1 09.08.2026 -
Juan Fernando Alfaro Olimpia Aktiv 123 / 107 40% 1 07.08.2026 -
Josué Estrada Universitario Aktiv 102 / 116 40% 1 07.08.2026 -
Juan Romero Olimpia Aktiv 101 / 108 40% 1 07.08.2026 -
Jonathan Cañete Portuguesa Aktiv 114 / 115 40% 1 06.08.2026 -
Breel Embolo Atlanta United FC Aktiv 146 / 137 40% 1 06.08.2026 -
Luis Gonzalez Atletico Venezuela Aktiv 109 / 108 40% 1 03.08.2026 -
Darío Cáceres Defensa y Justicia Aktiv 117 / 111 40% 1 03.08.2026 -
Iván Tapia Barracas Central Aktiv 117 / 117 40% 1 02.08.2026 -
Cristian Calderón Pumas UNAM Aktiv 140 / 117 40% 1 02.08.2026 -
Franco Pizzichillo Montevideo City Torque Aktiv 118 / 117 40% 1 01.08.2026 -
Ander Guevara Alavés Aktiv 136 / 129 40% 1 01.08.2026 -